sensor_id;sensor_type;location;lat;lon;timestamp;pressure;altitude;pressure_sealevel;temperature;humidity
6218;BME280;3142;48.206;11.550;2023-07-31T00:01:59;95891.34;;;20.22;54.34
6218;BME280;3142;48.206;11.550;2023-07-31T00:04:25;95887.06;;;20.16;54.69
6218;BME280;3142;48.206;11.550;2023-07-31T00:06:53;95890.97;;;20.08;55.14
6218;BME280;3142;48.206;11.550;2023-07-31T00:09:19;95887.22;;;20.04;55.47
6218;BME280;3142;48.206;11.550;2023-07-31T00:11:46;95891.19;;;20.01;55.39
6218;BME280;3142;48.206;11.550;2023-07-31T00:14:12;95887.91;;;19.89;55.75
6218;BME280;3142;48.206;11.550;2023-07-31T00:16:39;95882.28;;;19.86;55.79
6218;BME280;3142;48.206;11.550;2023-07-31T00:19:05;95889.16;;;19.81;56.43
6218;BME280;3142;48.206;11.550;2023-07-31T00:21:32;95892.38;;;19.83;56.64
6218;BME280;3142;48.206;11.550;2023-07-31T00:23:59;95889.44;;;19.85;56.51
6218;BME280;3142;48.206;11.550;2023-07-31T00:26:26;95889.69;;;19.78;56.24
6218;BME280;3142;48.206;11.550;2023-07-31T00:28:52;95885.94;;;19.74;56.94
6218;BME280;3142;48.206;11.550;2023-07-31T00:31:19;95883.06;;;19.81;56.83
6218;BME280;3142;48.206;11.550;2023-07-31T00:33:45;95878.00;;;19.79;57.28
6218;BME280;3142;48.206;11.550;2023-07-31T00:36:12;95882.22;;;19.75;57.58
6218;BME280;3142;48.206;11.550;2023-07-31T00:38:38;95879.81;;;19.74;57.66
6218;BME280;3142;48.206;11.550;2023-07-31T00:41:06;95875.31;;;19.74;57.84
6218;BME280;3142;48.206;11.550;2023-07-31T00:43:32;95874.00;;;19.77;58.11
6218;BME280;3142;48.206;11.550;2023-07-31T00:45:59;95868.94;;;19.75;57.86
6218;BME280;3142;48.206;11.550;2023-07-31T00:48:25;95864.69;;;19.74;58.55
6218;BME280;3142;48.206;11.550;2023-07-31T00:50:52;95869.75;;;19.76;58.33
6218;BME280;3142;48.206;11.550;2023-07-31T00:53:19;95864.13;;;19.72;58.61
6218;BME280;3142;48.206;11.550;2023-07-31T00:55:45;95863.84;;;19.69;58.78
6218;BME280;3142;48.206;11.550;2023-07-31T00:58:13;95861.69;;;19.66;59.05
6218;BME280;3142;48.206;11.550;2023-07-31T01:00:40;95865.09;;;19.61;59.02
6218;BME280;3142;48.206;11.550;2023-07-31T01:03:06;95866.19;;;19.65;58.66
6218;BME280;3142;48.206;11.550;2023-07-31T01:05:36;95861.16;;;19.64;59.24
6218;BME280;3142;48.206;11.550;2023-07-31T01:08:10;95855.03;;;19.63;59.35
6218;BME280;3142;48.206;11.550;2023-07-31T01:10:46;95856.56;;;19.59;58.85
6218;BME280;3142;48.206;11.550;2023-07-31T01:13:17;95860.84;;;19.60;58.75
6218;BME280;3142;48.206;11.550;2023-07-31T01:15:44;95857.38;;;19.60;58.95
6218;BME280;3142;48.206;11.550;2023-07-31T01:18:10;95851.59;;;19.63;58.78
6218;BME280;3142;48.206;11.550;2023-07-31T01:20:37;95843.88;;;19.61;58.80
6218;BME280;3142;48.206;11.550;2023-07-31T01:23:47;95843.34;;;19.64;58.26
6218;BME280;3142;48.206;11.550;2023-07-31T01:26:21;95842.56;;;19.64;58.54
6218;BME280;3142;48.206;11.550;2023-07-31T01:28:55;95834.84;;;19.62;57.96
6218;BME280;3142;48.206;11.550;2023-07-31T01:31:23;95836.97;;;19.60;58.44
6218;BME280;3142;48.206;11.550;2023-07-31T01:33:53;95826.63;;;19.64;58.77
6218;BME280;3142;48.206;11.550;2023-07-31T01:36:20;95830.34;;;19.63;58.18
6218;BME280;3142;48.206;11.550;2023-07-31T01:38:46;95826.09;;;19.62;58.62
6218;BME280;3142;48.206;11.550;2023-07-31T01:41:12;95827.19;;;19.66;58.37
6218;BME280;3142;48.206;11.550;2023-07-31T01:43:40;95833.53;;;19.65;58.09
6218;BME280;3142;48.206;11.550;2023-07-31T01:46:07;95833.53;;;19.65;57.84
6218;BME280;3142;48.206;11.550;2023-07-31T01:48:33;95831.44;;;19.67;58.13
6218;BME280;3142;48.206;11.550;2023-07-31T01:51:02;95828.75;;;19.62;58.25
6218;BME280;3142;48.206;11.550;2023-07-31T01:53:30;95827.31;;;19.54;58.15
6218;BME280;3142;48.206;11.550;2023-07-31T01:55:56;95826.75;;;19.52;58.30
6218;BME280;3142;48.206;11.550;2023-07-31T01:58:23;95834.69;;;19.47;58.49
6218;BME280;3142;48.206;11.550;2023-07-31T02:00:50;95826.47;;;19.48;58.36
6218;BME280;3142;48.206;11.550;2023-07-31T02:03:17;95833.38;;;19.49;58.86
6218;BME280;3142;48.206;11.550;2023-07-31T02:05:44;95834.13;;;19.45;58.92
6218;BME280;3142;48.206;11.550;2023-07-31T02:08:11;95831.00;;;19.48;58.52
6218;BME280;3142;48.206;11.550;2023-07-31T02:10:37;95818.25;;;19.50;58.72
6218;BME280;3142;48.206;11.550;2023-07-31T02:13:04;95822.50;;;19.51;58.98
6218;BME280;3142;48.206;11.550;2023-07-31T02:15:30;95814.28;;;19.52;58.89
6218;BME280;3142;48.206;11.550;2023-07-31T02:17:58;95811.38;;;19.54;58.76
6218;BME280;3142;48.206;11.550;2023-07-31T02:20:25;95805.06;;;19.55;58.80
6218;BME280;3142;48.206;11.550;2023-07-31T02:22:51;95806.84;;;19.49;58.79
6218;BME280;3142;48.206;11.550;2023-07-31T02:25:18;95803.94;;;19.51;59.08
6218;BME280;3142;48.206;11.550;2023-07-31T02:27:44;95802.84;;;19.47;59.22
6218;BME280;3142;48.206;11.550;2023-07-31T02:30:11;95801.53;;;19.49;58.73
6218;BME280;3142;48.206;11.550;2023-07-31T02:32:37;95797.53;;;19.47;59.21
6218;BME280;3142;48.206;11.550;2023-07-31T02:35:06;95792.41;;;19.35;59.88
6218;BME280;3142;48.206;11.550;2023-07-31T02:37:33;95798.69;;;19.29;59.94
6218;BME280;3142;48.206;11.550;2023-07-31T02:40:00;95789.59;;;19.20;60.06
6218;BME280;3142;48.206;11.550;2023-07-31T02:42:26;95784.50;;;19.13;60.00
6218;BME280;3142;48.206;11.550;2023-07-31T02:44:53;95786.59;;;19.11;60.40
6218;BME280;3142;48.206;11.550;2023-07-31T02:47:21;95780.50;;;19.11;59.85
6218;BME280;3142;48.206;11.550;2023-07-31T02:49:47;95783.44;;;19.14;60.49
6218;BME280;3142;48.206;11.550;2023-07-31T02:52:15;95777.88;;;19.16;60.13
6218;BME280;3142;48.206;11.550;2023-07-31T02:54:41;95774.44;;;19.15;60.50
6218;BME280;3142;48.206;11.550;2023-07-31T02:57:08;95781.28;;;19.11;60.31
6218;BME280;3142;48.206;11.550;2023-07-31T02:59:34;95776.50;;;19.08;60.24
6218;BME280;3142;48.206;11.550;2023-07-31T03:02:01;95783.34;;;19.04;60.98
6218;BME280;3142;48.206;11.550;2023-07-31T03:04:27;95779.16;;;19.08;60.91
6218;BME280;3142;48.206;11.550;2023-07-31T03:06:54;95776.50;;;19.08;60.58
6218;BME280;3142;48.206;11.550;2023-07-31T03:09:21;95774.13;;;19.12;60.88
6218;BME280;3142;48.206;11.550;2023-07-31T03:11:48;95765.38;;;19.11;60.22
6218;BME280;3142;48.206;11.550;2023-07-31T03:14:14;95769.59;;;19.07;60.57
6218;BME280;3142;48.206;11.550;2023-07-31T03:16:41;95776.41;;;18.98;60.72
6218;BME280;3142;48.206;11.550;2023-07-31T03:19:07;95769.25;;;18.99;60.69
6218;BME280;3142;48.206;11.550;2023-07-31T03:21:34;95774.25;;;18.95;61.14
6218;BME280;3142;48.206;11.550;2023-07-31T03:24:00;95774.50;;;18.93;61.38
6218;BME280;3142;48.206;11.550;2023-07-31T03:26:28;95769.13;;;18.88;61.65
6218;BME280;3142;48.206;11.550;2023-07-31T03:28:55;95774.19;;;18.90;61.44
6218;BME280;3142;48.206;11.550;2023-07-31T03:31:21;95769.19;;;18.93;61.40
6218;BME280;3142;48.206;11.550;2023-07-31T03:33:47;95778.22;;;18.92;61.17
6218;BME280;3142;48.206;11.550;2023-07-31T03:36:14;95780.84;;;18.92;61.21
6218;BME280;3142;48.206;11.550;2023-07-31T03:38:40;95785.38;;;18.92;62.24
6218;BME280;3142;48.206;11.550;2023-07-31T03:41:07;95786.63;;;18.89;61.63
6218;BME280;3142;48.206;11.550;2023-07-31T03:43:35;95787.94;;;18.87;62.50
6218;BME280;3142;48.206;11.550;2023-07-31T03:46:01;95783.16;;;18.84;62.02
6218;BME280;3142;48.206;11.550;2023-07-31T03:48:28;95783.91;;;18.79;62.19
6218;BME280;3142;48.206;11.550;2023-07-31T03:50:55;95783.69;;;18.86;63.02
6218;BME280;3142;48.206;11.550;2023-07-31T03:53:21;95779.72;;;18.88;62.90
6218;BME280;3142;48.206;11.550;2023-07-31T03:55:48;95778.94;;;18.88;62.47
6218;BME280;3142;48.206;11.550;2023-07-31T03:58:14;95780.53;;;18.89;63.06
6218;BME280;3142;48.206;11.550;2023-07-31T04:00:42;95784.56;;;18.91;63.24
6218;BME280;3142;48.206;11.550;2023-07-31T04:03:08;95780.25;;;18.85;64.09
6218;BME280;3142;48.206;11.550;2023-07-31T04:05:38;95780.78;;;18.87;63.73
6218;BME280;3142;48.206;11.550;2023-07-31T04:08:04;95779.25;;;18.91;63.70
6218;BME280;3142;48.206;11.550;2023-07-31T04:10:31;95774.25;;;18.95;63.68
6218;BME280;3142;48.206;11.550;2023-07-31T04:12:58;95772.69;;;18.99;63.62
6218;BME280;3142;48.206;11.550;2023-07-31T04:15:25;95771.84;;;18.93;63.92
6218;BME280;3142;48.206;11.550;2023-07-31T04:17:53;95771.06;;;18.93;64.40
6218;BME280;3142;48.206;11.550;2023-07-31T04:20:19;95771.88;;;18.99;63.82
6218;BME280;3142;48.206;11.550;2023-07-31T04:22:45;95768.72;;;19.02;63.76
6218;BME280;3142;48.206;11.550;2023-07-31T04:25:12;95770.06;;;19.04;64.19
6218;BME280;3142;48.206;11.550;2023-07-31T04:27:39;95765.28;;;19.01;64.38
6218;BME280;3142;48.206;11.550;2023-07-31T04:30:07;95770.31;;;19.03;64.56
6218;BME280;3142;48.206;11.550;2023-07-31T04:32:33;95774.03;;;19.02;64.31
6218;BME280;3142;48.206;11.550;2023-07-31T04:35:02;95766.88;;;19.02;64.96
6218;BME280;3142;48.206;11.550;2023-07-31T04:37:28;95771.09;;;18.98;64.67
6218;BME280;3142;48.206;11.550;2023-07-31T04:39:55;95764.94;;;18.92;64.92
6218;BME280;3142;48.206;11.550;2023-07-31T04:42:21;95774.00;;;18.97;65.34
6218;BME280;3142;48.206;11.550;2023-07-31T04:44:48;95772.41;;;18.96;65.46
6218;BME280;3142;48.206;11.550;2023-07-31T04:47:14;95766.84;;;18.97;65.67
6218;BME280;3142;48.206;11.550;2023-07-31T04:49:40;95772.44;;;19.01;65.40
6218;BME280;3142;48.206;11.550;2023-07-31T04:52:08;95761.56;;;19.02;65.35
6218;BME280;3142;48.206;11.550;2023-07-31T04:54:35;95765.09;;;19.08;66.33
6218;BME280;3142;48.206;11.550;2023-07-31T04:57:01;95764.84;;;19.09;65.79
6218;BME280;3142;48.206;11.550;2023-07-31T04:59:28;95765.09;;;19.08;66.65
6218;BME280;3142;48.206;11.550;2023-07-31T05:01:54;95765.94;;;19.13;66.45
6218;BME280;3142;48.206;11.550;2023-07-31T05:04:21;95762.28;;;19.19;65.97
6218;BME280;3142;48.206;11.550;2023-07-31T05:06:47;95762.81;;;19.21;66.43
6218;BME280;3142;48.206;11.550;2023-07-31T05:09:15;95759.91;;;19.23;66.40
6218;BME280;3142;48.206;11.550;2023-07-31T05:11:42;95759.31;;;19.16;66.52
6218;BME280;3142;48.206;11.550;2023-07-31T05:14:08;95763.31;;;19.18;66.68
6218;BME280;3142;48.206;11.550;2023-07-31T05:16:35;95762.28;;;19.19;66.51
6218;BME280;3142;48.206;11.550;2023-07-31T05:19:01;95765.41;;;19.16;66.78
6218;BME280;3142;48.206;11.550;2023-07-31T05:21:28;95767.22;;;19.11;66.60
6218;BME280;3142;48.206;11.550;2023-07-31T05:23:54;95767.22;;;19.11;66.88
6218;BME280;3142;48.206;11.550;2023-07-31T05:26:22;95761.63;;;19.07;66.77
6218;BME280;3142;48.206;11.550;2023-07-31T05:28:48;95768.00;;;19.06;66.87
6218;BME280;3142;48.206;11.550;2023-07-31T05:31:15;95766.63;;;19.04;66.75
6218;BME280;3142;48.206;11.550;2023-07-31T05:33:41;95762.38;;;19.03;66.99
6218;BME280;3142;48.206;11.550;2023-07-31T05:36:07;95755.56;;;19.12;66.38
6218;BME280;3142;48.206;11.550;2023-07-31T05:38:34;95758.31;;;19.22;66.03
6218;BME280;3142;48.206;11.550;2023-07-31T05:41:00;95758.69;;;19.36;65.04
6218;BME280;3142;48.206;11.550;2023-07-31T05:43:28;95764.31;;;19.44;64.72
6218;BME280;3142;48.206;11.550;2023-07-31T05:45:55;95751.16;;;19.55;64.40
6218;BME280;3142;48.206;11.550;2023-07-31T05:48:21;95754.34;;;19.57;64.12
6218;BME280;3142;48.206;11.550;2023-07-31T05:50:48;95759.41;;;19.58;64.07
6218;BME280;3142;48.206;11.550;2023-07-31T05:53:14;95756.56;;;19.70;63.60
6218;BME280;3142;48.206;11.550;2023-07-31T05:55:41;95753.41;;;19.73;63.10
6218;BME280;3142;48.206;11.550;2023-07-31T05:58:07;95756.63;;;19.75;63.29
6218;BME280;3142;48.206;11.550;2023-07-31T06:00:35;95753.97;;;19.75;62.80
6218;BME280;3142;48.206;11.550;2023-07-31T06:03:01;95763.00;;;19.79;62.75
6218;BME280;3142;48.206;11.550;2023-07-31T06:05:28;95759.56;;;19.78;62.42
6218;BME280;3142;48.206;11.550;2023-07-31T06:07:55;95761.19;;;19.85;62.29
6218;BME280;3142;48.206;11.550;2023-07-31T06:10:21;95767.59;;;19.89;62.42
6218;BME280;3142;48.206;11.550;2023-07-31T06:12:48;95768.69;;;19.93;61.70
6218;BME280;3142;48.206;11.550;2023-07-31T06:15:14;95760.47;;;19.99;61.28
6218;BME280;3142;48.206;11.550;2023-07-31T06:17:42;95758.13;;;20.03;61.40
6218;BME280;3142;48.206;11.550;2023-07-31T06:20:09;95769.50;;;19.98;60.99
6218;BME280;3142;48.206;11.550;2023-07-31T06:22:35;95765.53;;;20.01;60.52
6218;BME280;3142;48.206;11.550;2023-07-31T06:25:02;95767.69;;;20.04;61.02
6218;BME280;3142;48.206;11.550;2023-07-31T06:27:28;95758.69;;;20.10;60.64
6218;BME280;3142;48.206;11.550;2023-07-31T06:29:55;95759.72;;;20.09;60.91
6218;BME280;3142;48.206;11.550;2023-07-31T06:32:21;95769.56;;;20.08;60.45
6218;BME280;3142;48.206;11.550;2023-07-31T06:34:49;95767.44;;;20.10;60.59
6218;BME280;3142;48.206;11.550;2023-07-31T06:37:16;95768.03;;;20.18;60.41
6218;BME280;3142;48.206;11.550;2023-07-31T06:39:42;95764.03;;;20.20;59.89
6218;BME280;3142;48.206;11.550;2023-07-31T06:42:09;95770.16;;;20.26;59.96
6218;BME280;3142;48.206;11.550;2023-07-31T06:44:35;95772.06;;;20.30;59.76
6218;BME280;3142;48.206;11.550;2023-07-31T06:47:02;95762.50;;;20.34;59.36
6218;BME280;3142;48.206;11.550;2023-07-31T06:49:28;95761.72;;;20.29;59.29
6218;BME280;3142;48.206;11.550;2023-07-31T06:51:56;95760.13;;;20.38;59.59
6218;BME280;3142;48.206;11.550;2023-07-31T06:54:22;95758.81;;;20.40;58.91
6218;BME280;3142;48.206;11.550;2023-07-31T06:56:49;95753.28;;;20.47;59.27
6218;BME280;3142;48.206;11.550;2023-07-31T06:59:15;95744.78;;;20.50;58.85
6218;BME280;3142;48.206;11.550;2023-07-31T07:01:42;95748.97;;;20.41;59.06
6218;BME280;3142;48.206;11.550;2023-07-31T07:04:08;95751.63;;;20.41;59.23
6218;BME280;3142;48.206;11.550;2023-07-31T07:06:34;95746.56;;;20.39;59.11
6218;BME280;3142;48.206;11.550;2023-07-31T07:09:02;95744.78;;;20.45;59.56
6218;BME280;3142;48.206;11.550;2023-07-31T07:11:29;95747.72;;;20.49;59.26
6218;BME280;3142;48.206;11.550;2023-07-31T07:13:55;95748.78;;;20.43;59.31
6218;BME280;3142;48.206;11.550;2023-07-31T07:16:22;95750.91;;;20.46;59.03
6218;BME280;3142;48.206;11.550;2023-07-31T07:18:48;95754.88;;;20.48;58.91
6218;BME280;3142;48.206;11.550;2023-07-31T07:21:15;95751.47;;;20.58;59.36
6218;BME280;3142;48.206;11.550;2023-07-31T07:23:43;95748.31;;;20.71;59.10
6218;BME280;3142;48.206;11.550;2023-07-31T07:26:11;95747.00;;;20.74;58.71
6218;BME280;3142;48.206;11.550;2023-07-31T07:28:37;95741.97;;;20.87;58.11
6218;BME280;3142;48.206;11.550;2023-07-31T07:31:03;95746.78;;;21.06;58.03
6218;BME280;3142;48.206;11.550;2023-07-31T07:33:30;95748.91;;;21.04;57.60
6218;BME280;3142;48.206;11.550;2023-07-31T07:36:00;95751.56;;;21.09;57.50
6218;BME280;3142;48.206;11.550;2023-07-31T07:38:26;95743.88;;;21.17;57.57
6218;BME280;3142;48.206;11.550;2023-07-31T07:40:53;95740.44;;;21.37;57.17
6218;BME280;3142;48.206;11.550;2023-07-31T07:43:21;95732.97;;;21.49;56.41
6218;BME280;3142;48.206;11.550;2023-07-31T07:45:47;95724.47;;;21.52;56.22
6218;BME280;3142;48.206;11.550;2023-07-31T07:48:13;95724.97;;;21.65;56.19
6218;BME280;3142;48.206;11.550;2023-07-31T07:50:42;95724.13;;;21.95;55.57
6218;BME280;3142;48.206;11.550;2023-07-31T07:53:08;95724.38;;;22.08;54.79
6218;BME280;3142;48.206;11.550;2023-07-31T07:55:35;95715.03;;;22.06;53.31
6218;BME280;3142;48.206;11.550;2023-07-31T07:58:01;95720.09;;;21.92;53.69
6218;BME280;3142;48.206;11.550;2023-07-31T08:00:29;95703.06;;;22.08;53.61
6218;BME280;3142;48.206;11.550;2023-07-31T08:02:56;95709.78;;;22.55;52.95
6218;BME280;3142;48.206;11.550;2023-07-31T08:05:23;95705.34;;;22.90;51.59
6218;BME280;3142;48.206;11.550;2023-07-31T08:07:50;95709.84;;;23.28;51.29
6218;BME280;3142;48.206;11.550;2023-07-31T08:10:16;95710.56;;;23.68;50.26
6218;BME280;3142;48.206;11.550;2023-07-31T08:12:43;95715.09;;;23.97;48.75
6218;BME280;3142;48.206;11.550;2023-07-31T08:15:09;95719.66;;;24.20;47.58
6218;BME280;3142;48.206;11.550;2023-07-31T08:17:37;95709.94;;;24.29;47.86
6218;BME280;3142;48.206;11.550;2023-07-31T08:20:05;95705.91;;;24.50;47.01
6218;BME280;3142;48.206;11.550;2023-07-31T08:22:32;95708.28;;;24.09;46.20
6218;BME280;3142;48.206;11.550;2023-07-31T08:24:58;95717.84;;;23.91;46.79
6218;BME280;3142;48.206;11.550;2023-07-31T08:27:25;95723.78;;;23.83;46.44
6218;BME280;3142;48.206;11.550;2023-07-31T08:29:51;95726.16;;;23.56;47.37
6218;BME280;3142;48.206;11.550;2023-07-31T08:32:18;95719.41;;;23.34;47.62
6218;BME280;3142;48.206;11.550;2023-07-31T08:34:46;95722.03;;;23.05;48.42
6218;BME280;3142;48.206;11.550;2023-07-31T08:37:12;95714.09;;;22.95;48.81
6218;BME280;3142;48.206;11.550;2023-07-31T08:39:38;95727.78;;;22.79;48.91
6218;BME280;3142;48.206;11.550;2023-07-31T08:42:08;95715.63;;;22.62;47.46
6218;BME280;3142;48.206;11.550;2023-07-31T08:44:35;95708.22;;;22.44;47.17
6218;BME280;3142;48.206;11.550;2023-07-31T08:47:03;95709.88;;;22.30;48.01
6218;BME280;3142;48.206;11.550;2023-07-31T08:49:30;95724.03;;;22.20;48.90
6218;BME280;3142;48.206;11.550;2023-07-31T08:51:58;95715.59;;;22.08;49.22
6218;BME280;3142;48.206;11.550;2023-07-31T08:54:24;95714.53;;;21.94;49.87
6218;BME280;3142;48.206;11.550;2023-07-31T08:56:55;95717.19;;;21.88;50.66
6218;BME280;3142;48.206;11.550;2023-07-31T08:59:23;95717.50;;;21.82;50.46
6218;BME280;3142;48.206;11.550;2023-07-31T09:01:53;95714.53;;;21.78;50.86
6218;BME280;3142;48.206;11.550;2023-07-31T09:04:20;95715.63;;;21.82;51.27
6218;BME280;3142;48.206;11.550;2023-07-31T09:06:49;95722.28;;;21.85;51.93
6218;BME280;3142;48.206;11.550;2023-07-31T09:09:19;95718.25;;;21.87;51.91
6218;BME280;3142;48.206;11.550;2023-07-31T09:11:46;95716.34;;;22.03;51.72
6218;BME280;3142;48.206;11.550;2023-07-31T09:14:13;95708.31;;;22.24;51.20
6218;BME280;3142;48.206;11.550;2023-07-31T09:16:51;95705.31;;;22.40;51.12
6218;BME280;3142;48.206;11.550;2023-07-31T09:19:25;95705.19;;;22.61;51.11
6218;BME280;3142;48.206;11.550;2023-07-31T09:21:51;95700.53;;;22.82;50.16
6218;BME280;3142;48.206;11.550;2023-07-31T09:24:26;95694.56;;;23.00;48.91
6218;BME280;3142;48.206;11.550;2023-07-31T09:26:54;95696.72;;;22.98;48.67
6218;BME280;3142;48.206;11.550;2023-07-31T09:29:21;95690.59;;;22.97;48.48
6218;BME280;3142;48.206;11.550;2023-07-31T09:31:48;95695.38;;;23.00;48.21
6218;BME280;3142;48.206;11.550;2023-07-31T09:34:15;95689.72;;;23.07;47.85
6218;BME280;3142;48.206;11.550;2023-07-31T09:36:42;95690.97;;;23.20;47.77
6218;BME280;3142;48.206;11.550;2023-07-31T09:39:10;95693.44;;;23.40;47.62
6218;BME280;3142;48.206;11.550;2023-07-31T09:41:39;95696.53;;;23.52;46.89
6218;BME280;3142;48.206;11.550;2023-07-31T09:44:05;95696.09;;;23.74;45.96
6218;BME280;3142;48.206;11.550;2023-07-31T09:46:34;95684.25;;;24.28;45.27
6218;BME280;3142;48.206;11.550;2023-07-31T09:49:07;95679.63;;;24.58;45.22
6218;BME280;3142;48.206;11.550;2023-07-31T09:51:34;95675.69;;;25.25;44.41
6218;BME280;3142;48.206;11.550;2023-07-31T09:54:04;95674.22;;;25.79;43.24
6218;BME280;3142;48.206;11.550;2023-07-31T09:56:35;95668.75;;;26.25;42.44
6218;BME280;3142;48.206;11.550;2023-07-31T09:59:04;95666.94;;;26.84;41.41
6218;BME280;3142;48.206;11.550;2023-07-31T10:01:31;95657.16;;;27.25;39.57
6218;BME280;3142;48.206;11.550;2023-07-31T10:03:58;95656.28;;;27.38;38.96
6218;BME280;3142;48.206;11.550;2023-07-31T10:06:25;95652.72;;;27.73;38.58
6218;BME280;3142;48.206;11.550;2023-07-31T10:08:52;95652.34;;;27.66;38.11
6218;BME280;3142;48.206;11.550;2023-07-31T10:11:21;95649.56;;;27.80;38.67
6218;BME280;3142;48.206;11.550;2023-07-31T10:13:48;95653.91;;;27.98;37.91
6218;BME280;3142;48.206;11.550;2023-07-31T10:16:16;95642.75;;;27.74;38.58
6218;BME280;3142;48.206;11.550;2023-07-31T10:18:44;95634.22;;;27.50;37.75
6218;BME280;3142;48.206;11.550;2023-07-31T10:21:11;95616.56;;;27.97;38.31
6218;BME280;3142;48.206;11.550;2023-07-31T10:23:38;95616.59;;;28.14;38.35
6218;BME280;3142;48.206;11.550;2023-07-31T10:26:07;95613.81;;;28.28;37.78
6218;BME280;3142;48.206;11.550;2023-07-31T10:28:34;95605.44;;;28.47;37.04
6218;BME280;3142;48.206;11.550;2023-07-31T10:31:03;95606.13;;;28.04;37.29
6218;BME280;3142;48.206;11.550;2023-07-31T10:33:31;95615.06;;;27.73;38.01
6218;BME280;3142;48.206;11.550;2023-07-31T10:36:14;95612.31;;;27.65;38.86
6218;BME280;3142;48.206;11.550;2023-07-31T10:38:41;95609.69;;;27.82;38.22
6218;BME280;3142;48.206;11.550;2023-07-31T10:41:09;95604.09;;;27.30;38.24
6218;BME280;3142;48.206;11.550;2023-07-31T10:43:36;95611.47;;;26.80;37.95
6218;BME280;3142;48.206;11.550;2023-07-31T10:46:06;95614.78;;;26.77;39.17
6218;BME280;3142;48.206;11.550;2023-07-31T10:48:35;95614.47;;;26.42;40.09
6218;BME280;3142;48.206;11.550;2023-07-31T10:51:07;95608.03;;;26.16;40.44
6218;BME280;3142;48.206;11.550;2023-07-31T10:53:34;95596.78;;;25.91;40.85
6218;BME280;3142;48.206;11.550;2023-07-31T10:56:01;95593.00;;;26.42;40.02
6218;BME280;3142;48.206;11.550;2023-07-31T10:58:28;95593.97;;;26.82;38.85
6218;BME280;3142;48.206;11.550;2023-07-31T11:00:58;95594.22;;;27.17;38.62
6218;BME280;3142;48.206;11.550;2023-07-31T11:03:25;95594.72;;;27.59;38.21
6218;BME280;3142;48.206;11.550;2023-07-31T11:05:59;95585.34;;;27.48;38.07
6218;BME280;3142;48.206;11.550;2023-07-31T11:08:29;95593.78;;;28.03;37.60
6218;BME280;3142;48.206;11.550;2023-07-31T11:11:06;95593.22;;;27.75;36.98
6218;BME280;3142;48.206;11.550;2023-07-31T11:13:34;95581.84;;;27.78;36.92
6218;BME280;3142;48.206;11.550;2023-07-31T11:16:05;95572.34;;;27.81;36.52
6218;BME280;3142;48.206;11.550;2023-07-31T11:18:32;95566.00;;;28.33;36.78
6218;BME280;3142;48.206;11.550;2023-07-31T11:20:59;95577.72;;;28.81;35.89
6218;BME280;3142;48.206;11.550;2023-07-31T11:23:26;95568.81;;;28.11;36.19
6218;BME280;3142;48.206;11.550;2023-07-31T11:25:52;95579.06;;;28.09;36.29
6218;BME280;3142;48.206;11.550;2023-07-31T11:28:25;95573.22;;;28.16;36.80
6218;BME280;3142;48.206;11.550;2023-07-31T11:30:51;95559.56;;;27.95;35.66
6218;BME280;3142;48.206;11.550;2023-07-31T11:33:17;95555.09;;;28.39;35.25
6218;BME280;3142;48.206;11.550;2023-07-31T11:35:45;95555.38;;;28.63;35.11
6218;BME280;3142;48.206;11.550;2023-07-31T11:38:22;95545.09;;;28.39;35.20
6218;BME280;3142;48.206;11.550;2023-07-31T11:40:50;95560.75;;;28.46;34.17
6218;BME280;3142;48.206;11.550;2023-07-31T11:43:17;95557.44;;;28.31;34.52
6218;BME280;3142;48.206;11.550;2023-07-31T11:45:45;95547.78;;;28.39;34.37
6218;BME280;3142;48.206;11.550;2023-07-31T11:48:18;95531.78;;;28.43;34.88
6218;BME280;3142;48.206;11.550;2023-07-31T11:50:45;95526.56;;;28.46;34.97
6218;BME280;3142;48.206;11.550;2023-07-31T11:53:13;95516.72;;;28.68;35.16
6218;BME280;3142;48.206;11.550;2023-07-31T11:55:41;95532.72;;;28.81;35.10
6218;BME280;3142;48.206;11.550;2023-07-31T11:58:08;95517.19;;;28.70;34.36
6218;BME280;3142;48.206;11.550;2023-07-31T12:00:35;95511.00;;;28.69;33.82
6218;BME280;3142;48.206;11.550;2023-07-31T12:03:02;95502.94;;;28.60;35.33
6218;BME280;3142;48.206;11.550;2023-07-31T12:05:29;95506.28;;;28.57;35.09
6218;BME280;3142;48.206;11.550;2023-07-31T12:07:56;95503.44;;;28.45;35.64
6218;BME280;3142;48.206;11.550;2023-07-31T12:10:25;95494.41;;;28.32;36.07
6218;BME280;3142;48.206;11.550;2023-07-31T12:13:03;95488.22;;;28.23;35.72
6218;BME280;3142;48.206;11.550;2023-07-31T12:15:37;95497.72;;;28.21;36.37
6218;BME280;3142;48.206;11.550;2023-07-31T12:18:04;95488.38;;;28.10;36.56
6218;BME280;3142;48.206;11.550;2023-07-31T12:20:32;95478.72;;;27.91;36.60
6218;BME280;3142;48.206;11.550;2023-07-31T12:22:58;95478.84;;;27.78;37.16
6218;BME280;3142;48.206;11.550;2023-07-31T12:25:29;95474.28;;;27.69;37.04
6218;BME280;3142;48.206;11.550;2023-07-31T12:27:56;95478.34;;;27.67;37.27
6218;BME280;3142;48.206;11.550;2023-07-31T12:30:32;95471.25;;;27.71;37.56
6218;BME280;3142;48.206;11.550;2023-07-31T12:33:03;95464.25;;;27.61;37.26
6218;BME280;3142;48.206;11.550;2023-07-31T12:35:35;95461.81;;;27.34;36.97
6218;BME280;3142;48.206;11.550;2023-07-31T12:38:02;95454.50;;;27.17;37.46
6218;BME280;3142;48.206;11.550;2023-07-31T12:40:29;95448.94;;;27.13;37.55
6218;BME280;3142;48.206;11.550;2023-07-31T12:42:55;95453.41;;;27.27;37.59
6218;BME280;3142;48.206;11.550;2023-07-31T12:45:22;95454.69;;;27.29;36.36
6218;BME280;3142;48.206;11.550;2023-07-31T12:47:49;95456.44;;;27.34;36.56
6218;BME280;3142;48.206;11.550;2023-07-31T12:50:16;95445.53;;;27.30;37.29
6218;BME280;3142;48.206;11.550;2023-07-31T12:52:43;95441.59;;;27.28;37.33
6218;BME280;3142;48.206;11.550;2023-07-31T12:55:09;95453.22;;;27.14;37.95
6218;BME280;3142;48.206;11.550;2023-07-31T12:57:36;95444.84;;;27.16;37.36
6218;BME280;3142;48.206;11.550;2023-07-31T13:00:03;95448.19;;;27.22;37.90
6218;BME280;3142;48.206;11.550;2023-07-31T13:02:29;95441.59;;;27.36;37.98
6218;BME280;3142;48.206;11.550;2023-07-31T13:04:57;95432.09;;;27.30;37.31
6218;BME280;3142;48.206;11.550;2023-07-31T13:07:24;95427.31;;;27.19;37.56
6218;BME280;3142;48.206;11.550;2023-07-31T13:09:51;95431.56;;;27.11;37.97
6218;BME280;3142;48.206;11.550;2023-07-31T13:12:17;95416.88;;;27.17;37.92